createdAt,value
2019-05-11T00:02:24.819Z,3.93
2019-05-11T00:04:53.002Z,3.43
2019-05-11T00:07:21.203Z,3.83
2019-05-11T00:09:58.129Z,3.30
2019-05-11T00:12:19.350Z,3.83
2019-05-11T00:14:47.550Z,3.50
2019-05-11T00:17:15.769Z,3.00
2019-05-11T00:19:44.175Z,3.43
2019-05-11T00:22:12.336Z,4.07
2019-05-11T00:24:40.513Z,3.77
2019-05-11T00:27:08.706Z,4.17
2019-05-11T00:29:36.896Z,4.13
2019-05-11T00:32:05.095Z,4.43
2019-05-11T00:34:33.299Z,3.87
2019-05-11T00:37:01.502Z,4.07
2019-05-11T00:39:29.694Z,3.90
2019-05-11T00:41:57.896Z,5.23
2019-05-11T00:44:26.085Z,4.17
2019-05-11T00:46:54.264Z,5.67
2019-05-11T00:49:22.522Z,4.67
2019-05-11T00:51:50.706Z,3.80
2019-05-11T00:54:18.898Z,4.50
2019-05-11T00:56:47.156Z,4.90
2019-05-11T00:59:21.742Z,5.03
2019-05-11T01:01:45.257Z,3.53
2019-05-11T01:04:13.566Z,4.37
2019-05-11T01:06:41.789Z,3.57
2019-05-11T01:09:10.311Z,3.73
2019-05-11T01:11:38.491Z,4.63
2019-05-11T01:14:06.713Z,4.57
2019-05-11T01:16:34.894Z,4.77
2019-05-11T01:19:03.074Z,4.23
2019-05-11T01:21:31.256Z,5.47
2019-05-11T01:23:59.441Z,4.23
2019-05-11T01:26:27.633Z,7.57
2019-05-11T01:28:55.812Z,4.70
2019-05-11T01:31:24.006Z,5.33
2019-05-11T01:33:52.202Z,4.00
2019-05-11T01:36:20.388Z,5.10
2019-05-11T01:38:48.577Z,6.33
2019-05-11T01:41:16.769Z,4.13
2019-05-11T01:43:45.094Z,5.97
2019-05-11T01:46:13.270Z,5.60
2019-05-11T01:48:41.457Z,5.53
2019-05-11T01:51:09.713Z,6.07
2019-05-11T01:53:37.898Z,5.17
2019-05-11T01:56:06.096Z,4.20
2019-05-11T01:58:34.276Z,4.67
2019-05-11T02:01:02.488Z,6.63
2019-05-11T02:03:30.841Z,4.37
2019-05-11T02:05:59.055Z,5.00
2019-05-11T02:08:27.225Z,5.90
2019-05-11T02:10:55.413Z,4.70
2019-05-11T02:13:23.645Z,4.40
2019-05-11T02:15:51.834Z,5.20
2019-05-11T02:18:20.029Z,5.23
2019-05-11T02:20:48.224Z,4.80
2019-05-11T02:23:16.403Z,5.20
2019-05-11T02:25:44.609Z,5.13
2019-05-11T02:28:12.794Z,5.10
2019-05-11T02:30:41.013Z,3.90
2019-05-11T02:33:09.198Z,5.37
2019-05-11T02:35:37.422Z,4.70
2019-05-11T02:38:05.610Z,3.07
2019-05-11T02:40:33.783Z,2.50
2019-05-11T02:43:01.982Z,2.93
2019-05-11T02:45:37.733Z,5.00
2019-05-11T02:48:06.024Z,2.00
2019-05-11T02:50:35.732Z,2.43
2019-05-11T02:53:04.086Z,3.03
2019-05-11T02:55:33.022Z,2.07
2019-05-11T02:58:01.278Z,2.23
2019-05-11T03:00:31.194Z,2.20
2019-05-11T03:02:59.369Z,2.30
2019-05-11T03:05:27.575Z,1.97
2019-05-11T03:07:55.754Z,2.13
2019-05-11T03:10:23.942Z,3.07
2019-05-11T03:12:52.134Z,3.00
2019-05-11T03:15:20.326Z,2.10
2019-05-11T03:17:48.509Z,3.23
2019-05-11T03:20:16.713Z,1.90
2019-05-11T03:22:44.891Z,2.73
2019-05-11T03:25:13.164Z,2.53
2019-05-11T03:27:41.346Z,2.17
2019-05-11T03:30:09.817Z,4.00
2019-05-11T03:32:38.094Z,1.63
2019-05-11T03:35:06.615Z,3.50
2019-05-11T03:37:34.815Z,2.00
2019-05-11T03:40:03.876Z,2.33
2019-05-11T03:42:32.067Z,1.90
2019-05-11T03:45:00.256Z,3.27
2019-05-11T03:47:28.502Z,2.27
2019-05-11T03:49:56.934Z,4.17
2019-05-11T03:52:25.124Z,2.00
2019-05-11T03:54:53.356Z,1.93
2019-05-11T03:57:21.555Z,2.10
2019-05-11T03:59:49.742Z,2.17
2019-05-11T04:02:18.052Z,2.20
2019-05-11T04:04:46.250Z,1.90
2019-05-11T04:07:15.161Z,3.33
2019-05-11T04:09:43.355Z,1.50
2019-05-11T04:12:11.537Z,2.33
2019-05-11T04:14:39.905Z,2.33
2019-05-11T04:17:08.080Z,2.13
2019-05-11T04:19:36.336Z,2.67
2019-05-11T04:22:04.702Z,1.80
2019-05-11T04:24:32.883Z,1.80
2019-05-11T04:27:01.176Z,1.70
2019-05-11T04:29:29.362Z,2.03
2019-05-11T04:31:57.547Z,2.00
2019-05-11T04:34:25.750Z,2.93
2019-05-11T04:36:53.921Z,2.50
2019-05-11T04:39:22.124Z,1.93
2019-05-11T04:41:50.301Z,1.87
2019-05-11T04:44:18.503Z,1.60
2019-05-11T04:46:46.707Z,2.23
2019-05-11T04:49:14.902Z,2.43
2019-05-11T04:51:43.121Z,1.63
2019-05-11T04:54:11.305Z,1.90
2019-05-11T04:56:39.489Z,2.77
2019-05-11T04:59:07.673Z,1.80
2019-05-11T05:01:35.863Z,1.90
2019-05-11T05:04:13.692Z,2.60
2019-05-11T05:06:34.121Z,1.73
2019-05-11T05:09:03.559Z,1.50
2019-05-11T05:11:36.654Z,1.57
2019-05-11T05:14:08.194Z,2.03
2019-05-11T05:16:32.186Z,1.50
2019-05-11T05:19:00.363Z,3.43
2019-05-11T05:21:28.551Z,1.77
2019-05-11T05:23:56.749Z,1.80
2019-05-11T05:26:24.943Z,1.30
2019-05-11T05:28:53.133Z,1.50
2019-05-11T05:31:21.402Z,2.10
2019-05-11T05:33:49.640Z,1.33
2019-05-11T05:36:17.846Z,2.33
2019-05-11T05:38:46.044Z,1.70
2019-05-11T05:41:14.254Z,3.10
2019-05-11T05:43:42.432Z,1.97
2019-05-11T05:46:10.611Z,2.33
2019-05-11T05:48:38.811Z,1.87
2019-05-11T05:51:06.989Z,1.50
2019-05-11T05:53:35.206Z,2.57
2019-05-11T05:56:03.453Z,3.63
2019-05-11T05:58:31.643Z,4.97
2019-05-11T06:00:59.928Z,2.80
2019-05-11T06:03:28.123Z,1.80
2019-05-11T06:05:56.349Z,1.80
2019-05-11T06:08:24.597Z,1.60
2019-05-11T06:10:52.800Z,3.27
2019-05-11T06:13:21.009Z,2.70
2019-05-11T06:15:49.194Z,1.67
2019-05-11T06:18:17.423Z,2.93
2019-05-11T06:20:45.785Z,5.30
2019-05-11T06:23:13.972Z,3.30
2019-05-11T06:25:42.180Z,3.77
2019-05-11T06:28:10.352Z,1.60
2019-05-11T06:30:38.561Z,1.93
2019-05-11T06:33:06.742Z,2.00
2019-05-11T06:35:34.933Z,2.07
2019-05-11T06:38:03.138Z,1.70
2019-05-11T06:40:31.427Z,2.67
2019-05-11T06:42:59.629Z,1.50
2019-05-11T06:45:27.865Z,2.03
2019-05-11T06:47:56.086Z,2.40
2019-05-11T06:50:24.342Z,2.90
2019-05-11T06:52:52.530Z,1.70
2019-05-11T06:55:20.730Z,1.97
2019-05-11T06:57:48.905Z,2.47
2019-05-11T07:00:17.393Z,1.67
2019-05-11T07:02:45.634Z,2.40
2019-05-11T07:05:14.130Z,4.70
2019-05-11T07:07:47.533Z,2.17
2019-05-11T07:10:12.286Z,2.37
2019-05-11T07:12:40.545Z,1.90
2019-05-11T07:15:09.114Z,2.47
2019-05-11T07:17:37.301Z,2.30
2019-05-11T07:20:07.200Z,5.33
2019-05-11T07:22:35.404Z,3.00
2019-05-11T07:25:04.557Z,2.90
2019-05-11T07:27:32.800Z,2.90
2019-05-11T07:30:00.985Z,3.43
2019-05-11T07:32:29.478Z,2.27
2019-05-11T07:34:57.825Z,3.33
2019-05-11T07:37:28.046Z,2.27
2019-05-11T07:39:58.044Z,2.67
2019-05-11T07:42:25.813Z,2.27
2019-05-11T07:44:54.194Z,2.03
2019-05-11T07:47:22.408Z,2.60
2019-05-11T07:49:50.608Z,3.10
2019-05-11T07:52:18.806Z,2.27
2019-05-11T07:54:51.987Z,2.63
2019-05-11T07:57:18.659Z,1.93
2019-05-11T07:59:48.644Z,2.03
2019-05-11T08:02:17.767Z,1.93
2019-05-11T08:04:48.146Z,2.73
2019-05-11T08:07:18.101Z,2.40
2019-05-11T08:09:48.309Z,2.77
2019-05-11T08:12:16.300Z,2.13
2019-05-11T08:14:58.930Z,1.97
2019-05-11T08:17:14.495Z,2.70
2019-05-11T08:19:42.674Z,1.83
2019-05-11T08:22:10.998Z,3.83
2019-05-11T08:24:39.211Z,1.47
2019-05-11T08:27:08.434Z,2.50
2019-05-11T08:29:38.386Z,1.40
2019-05-11T08:32:08.204Z,2.20
2019-05-11T08:34:36.937Z,1.80
2019-05-11T08:37:05.207Z,1.47
2019-05-11T08:39:33.456Z,1.77
2019-05-11T08:42:03.358Z,1.53
2019-05-11T08:44:31.578Z,2.17
2019-05-11T08:46:59.778Z,1.77
2019-05-11T08:49:28.637Z,2.40
2019-05-11T08:51:58.001Z,2.07
2019-05-11T08:54:28.681Z,2.10
2019-05-11T08:56:58.532Z,1.20
2019-05-11T08:59:27.869Z,2.80
2019-05-11T09:01:58.542Z,1.33
2019-05-11T09:04:25.927Z,1.97
2019-05-11T09:06:54.161Z,1.27
2019-05-11T09:09:22.592Z,3.10
2019-05-11T09:11:50.778Z,1.50
2019-05-11T09:14:19.048Z,2.63
2019-05-11T09:16:48.856Z,1.30
2019-05-11T09:19:17.891Z,1.63
2019-05-11T09:21:48.155Z,1.50
2019-05-11T09:24:18.630Z,1.23
2019-05-11T09:26:47.959Z,0.80
2019-05-11T09:29:17.762Z,1.13
2019-05-11T09:31:45.860Z,1.17
2019-05-11T09:34:14.046Z,0.90
2019-05-11T09:36:42.252Z,2.07
2019-05-11T09:39:11.350Z,0.70
2019-05-11T09:41:39.560Z,0.80
2019-05-11T09:44:08.986Z,1.57
2019-05-11T09:46:38.441Z,1.10
2019-05-11T09:49:08.012Z,0.82
2019-05-11T09:51:37.960Z,0.70
2019-05-11T09:54:07.846Z,1.52
2019-05-11T09:56:38.170Z,2.17
2019-05-11T09:59:08.588Z,1.52
2019-05-11T10:01:37.850Z,0.70
2019-05-11T10:04:08.771Z,1.05
2019-05-11T10:06:38.624Z,1.45
2019-05-11T10:09:08.227Z,0.53
2019-05-11T10:11:36.601Z,1.50
2019-05-11T10:14:04.889Z,0.83
2019-05-11T10:16:33.083Z,1.93
2019-05-11T10:19:01.262Z,0.87
2019-05-11T10:21:29.460Z,1.83
2019-05-11T10:23:58.076Z,1.13
2019-05-11T10:26:27.877Z,1.10
2019-05-11T10:28:58.340Z,1.23
2019-05-11T10:31:28.516Z,1.43
2019-05-11T10:33:58.050Z,1.03
2019-05-11T10:36:28.036Z,1.70
2019-05-11T10:38:58.666Z,0.90
2019-05-11T10:41:28.482Z,1.23
2019-05-11T10:43:58.046Z,0.77
2019-05-11T10:46:28.231Z,1.77
2019-05-11T10:48:58.530Z,1.37
2019-05-11T10:51:28.568Z,1.70
2019-05-11T10:53:57.682Z,3.13
2019-05-11T10:56:28.398Z,1.77
2019-05-11T10:58:58.485Z,1.33
2019-05-11T11:01:28.544Z,0.80
2019-05-11T11:03:58.745Z,1.20
2019-05-11T11:06:28.172Z,1.93
2019-05-11T11:08:57.884Z,1.13
2019-05-11T11:11:27.747Z,1.20
2019-05-11T11:13:58.454Z,1.17
2019-05-11T11:16:38.830Z,1.13
2019-05-11T11:19:02.040Z,5.80
2019-05-11T11:21:30.351Z,3.67
2019-05-11T11:23:58.834Z,0.80
2019-05-11T11:26:28.521Z,2.10
2019-05-11T11:28:58.111Z,1.50
2019-05-11T11:31:28.815Z,0.70
2019-05-11T11:33:58.523Z,2.43
2019-05-11T11:36:28.371Z,3.47
2019-05-11T11:38:58.401Z,0.90
2019-05-11T11:41:26.715Z,1.37
2019-05-11T11:43:54.911Z,1.67
2019-05-11T11:46:23.093Z,1.10
2019-05-11T11:48:51.328Z,1.03
2019-05-11T11:51:19.489Z,1.03
2019-05-11T11:53:48.177Z,1.10
2019-05-11T11:56:18.953Z,1.40
2019-05-11T11:58:48.535Z,1.40
2019-05-11T12:01:18.658Z,1.57
2019-05-11T12:03:48.481Z,1.20
2019-05-11T12:06:18.181Z,13.07
2019-05-11T12:08:46.407Z,0.97
2019-05-11T12:11:15.083Z,2.00
2019-05-11T12:13:43.355Z,1.33
2019-05-11T12:16:11.574Z,2.80
2019-05-11T12:18:39.879Z,0.80
2019-05-11T12:21:08.195Z,0.60
2019-05-11T12:23:38.097Z,0.82
2019-05-11T12:26:08.512Z,0.80
2019-05-11T12:28:38.226Z,1.27
2019-05-11T12:31:08.546Z,2.10
2019-05-11T12:33:38.507Z,2.72
2019-05-11T12:36:07.920Z,0.60
2019-05-11T12:38:38.177Z,1.02
2019-05-11T12:41:08.527Z,2.77
2019-05-11T12:43:38.042Z,0.85
2019-05-11T12:46:08.069Z,2.95
2019-05-11T12:48:37.911Z,0.60
2019-05-11T12:51:07.999Z,0.80
2019-05-11T12:53:37.886Z,1.22
2019-05-11T12:56:08.209Z,0.50
2019-05-11T12:58:36.211Z,1.35
2019-05-11T13:01:04.502Z,0.53
2019-05-11T13:03:32.695Z,0.60
2019-05-11T13:06:00.915Z,0.47
2019-05-11T13:08:29.110Z,1.60
2019-05-11T13:10:58.431Z,0.80
2019-05-11T13:13:28.566Z,0.90
2019-05-11T13:15:58.558Z,1.20
2019-05-11T13:18:27.880Z,1.03
2019-05-11T13:20:58.617Z,1.00
2019-05-11T13:23:27.828Z,1.50
2019-05-11T13:25:58.682Z,0.73
2019-05-11T13:28:28.386Z,0.70
2019-05-11T13:30:57.979Z,2.97
2019-05-11T13:33:27.978Z,0.70
2019-05-11T13:35:57.936Z,1.30
2019-05-11T13:38:28.266Z,1.27
2019-05-11T13:40:58.453Z,1.40
2019-05-11T13:43:28.063Z,2.07
2019-05-11T13:45:58.454Z,1.00
2019-05-11T13:48:28.157Z,1.00
2019-05-11T13:50:58.227Z,1.13
2019-05-11T13:53:27.639Z,2.27
2019-05-11T13:55:55.875Z,2.63
2019-05-11T13:58:24.081Z,1.40
2019-05-11T14:00:52.270Z,1.20
2019-05-11T14:03:20.466Z,1.40
2019-05-11T14:05:48.648Z,2.70
2019-05-11T14:08:18.587Z,1.02
2019-05-11T14:10:48.819Z,0.85
2019-05-11T14:13:18.138Z,1.57
2019-05-11T14:15:48.152Z,0.80
2019-05-11T14:18:18.314Z,3.70
2019-05-11T14:20:48.331Z,2.47
2019-05-11T14:23:18.238Z,3.13
2019-05-11T14:25:48.638Z,2.13
2019-05-11T14:28:17.955Z,3.27
2019-05-11T14:30:48.606Z,3.07
2019-05-11T14:33:18.086Z,3.43
2019-05-11T14:35:48.733Z,1.77
2019-05-11T14:38:18.787Z,0.80
2019-05-11T14:40:48.011Z,2.43
2019-05-11T14:43:18.565Z,1.10
2019-05-11T14:45:48.447Z,5.00
2019-05-11T14:48:24.137Z,5.27
2019-05-11T14:50:48.744Z,0.70
2019-05-11T14:53:17.861Z,1.27
2019-05-11T14:55:48.623Z,1.23
2019-05-11T14:58:19.375Z,1.50
2019-05-11T15:00:48.518Z,0.80
2019-05-11T15:03:18.052Z,1.60
2019-05-11T15:05:47.780Z,1.33
2019-05-11T15:08:17.829Z,1.10
2019-05-11T15:10:45.924Z,0.80
2019-05-11T15:13:14.105Z,2.53
2019-05-11T15:15:42.559Z,2.20
2019-05-11T15:18:10.743Z,2.13
2019-05-11T15:20:38.948Z,1.63
2019-05-11T15:23:08.884Z,2.27
2019-05-11T15:25:38.228Z,1.87
2019-05-11T15:28:08.693Z,2.17
2019-05-11T15:30:38.043Z,1.33
2019-05-11T15:33:07.742Z,2.23
2019-05-11T15:35:37.794Z,1.87
2019-05-11T15:38:08.539Z,1.40
2019-05-11T15:40:38.127Z,1.43
2019-05-11T15:43:08.528Z,1.80
2019-05-11T15:45:38.084Z,1.40
2019-05-11T15:48:08.424Z,1.83
2019-05-11T15:50:39.719Z,1.43
2019-05-11T15:53:08.611Z,1.93
2019-05-11T15:55:38.229Z,1.73
2019-05-11T15:58:06.077Z,1.63
2019-05-11T16:00:34.508Z,1.90
2019-05-11T16:03:22.037Z,2.70
2019-05-11T16:05:50.301Z,3.30
2019-05-11T16:08:18.935Z,4.50
2019-05-11T16:10:48.924Z,1.43
2019-05-11T16:13:18.207Z,3.03
2019-05-11T16:15:48.428Z,2.57
2019-05-11T16:18:18.688Z,3.20
2019-05-11T16:20:48.189Z,2.67
2019-05-11T16:23:17.532Z,2.10
2019-05-11T16:25:48.472Z,2.40
2019-05-11T16:28:18.741Z,4.97
2019-05-11T16:30:48.194Z,3.43
2019-05-11T16:33:17.962Z,2.60
2019-05-11T16:35:46.137Z,3.30
2019-05-11T16:38:14.332Z,4.33
2019-05-11T16:40:42.530Z,5.90
2019-05-11T16:43:10.744Z,4.03
2019-05-11T16:45:38.960Z,4.83
2019-05-11T16:48:07.980Z,4.13
2019-05-11T16:50:38.281Z,4.80
2019-05-11T16:53:06.289Z,3.93
2019-05-11T16:55:34.728Z,5.30
2019-05-11T16:58:02.925Z,5.97
2019-05-11T17:00:31.112Z,5.37
2019-05-11T17:02:59.325Z,5.80
2019-05-11T17:05:33.406Z,4.93
2019-05-11T17:07:58.772Z,5.23
2019-05-11T17:10:28.520Z,5.90
2019-05-11T17:12:58.054Z,6.27
2019-05-11T17:15:28.712Z,5.00
2019-05-11T17:17:58.558Z,6.13
2019-05-11T17:20:27.727Z,4.60
2019-05-11T17:22:56.052Z,5.23
2019-05-11T17:25:24.246Z,5.13
2019-05-11T17:27:52.557Z,4.30
2019-05-11T17:30:20.947Z,4.87
2019-05-11T17:32:50.025Z,6.47
2019-05-11T17:35:18.602Z,4.87
2019-05-11T17:37:48.507Z,5.17
2019-05-11T17:40:20.446Z,4.70
2019-05-11T17:42:48.043Z,4.83
2019-05-11T17:45:18.677Z,5.77
2019-05-11T17:47:46.560Z,4.67
2019-05-11T17:50:14.931Z,4.50
2019-05-11T17:52:43.138Z,3.60
2019-05-11T17:55:11.763Z,3.60
2019-05-11T17:57:40.173Z,3.50
2019-05-11T18:00:09.234Z,3.53
2019-05-11T18:02:38.929Z,3.17
2019-05-11T18:05:08.934Z,3.03
2019-05-11T18:07:38.549Z,2.60
2019-05-11T18:10:08.160Z,3.20
2019-05-11T18:12:39.164Z,2.47
2019-05-11T18:15:08.203Z,4.03
2019-05-11T18:17:36.694Z,4.17
2019-05-11T18:20:14.724Z,2.97
2019-05-11T18:22:39.111Z,3.40
2019-05-11T18:25:09.670Z,3.00
2019-05-11T18:27:38.648Z,2.67
2019-05-11T18:30:08.943Z,3.67
2019-05-11T18:32:39.586Z,3.10
2019-05-11T18:35:08.429Z,2.53
2019-05-11T18:37:38.943Z,4.27
2019-05-11T18:40:07.391Z,3.33
2019-05-11T18:42:38.102Z,4.03
2019-05-11T18:45:08.262Z,3.97
2019-05-11T18:47:38.274Z,3.13
2019-05-11T18:50:07.077Z,4.40
2019-05-11T18:52:35.282Z,3.43
2019-05-11T18:55:04.495Z,4.40
2019-05-11T18:57:32.886Z,4.30
2019-05-11T19:00:01.084Z,4.47
2019-05-11T19:02:29.398Z,4.63
2019-05-11T19:04:58.198Z,5.53
2019-05-11T19:07:28.272Z,6.83
2019-05-11T19:09:57.713Z,6.40
2019-05-11T19:12:27.867Z,5.80
2019-05-11T19:15:18.426Z,6.20
2019-05-11T19:17:45.811Z,7.87
2019-05-11T19:20:14.470Z,8.23
2019-05-11T19:22:42.752Z,7.00
2019-05-11T19:25:11.006Z,8.67
2019-05-11T19:27:39.197Z,6.53
2019-05-11T19:30:08.076Z,7.10
2019-05-11T19:32:38.340Z,7.63
2019-05-11T19:35:08.959Z,6.87
2019-05-11T19:37:38.483Z,7.17
2019-05-11T19:40:09.102Z,8.20
2019-05-11T19:42:54.636Z,9.33
2019-05-11T19:45:23.257Z,5.90
2019-05-11T19:47:51.469Z,8.47
2019-05-11T19:50:19.770Z,7.40
2019-05-11T19:52:49.006Z,7.50
2019-05-11T19:55:17.990Z,9.07
2019-05-11T19:57:48.223Z,8.17
2019-05-11T20:00:18.384Z,9.70
2019-05-11T20:02:47.501Z,9.00
2019-05-11T20:05:18.454Z,7.63
2019-05-11T20:07:49.133Z,9.60
2019-05-11T20:10:18.837Z,7.73
2019-05-11T20:12:48.362Z,5.43
2019-05-11T20:15:18.885Z,7.93
2019-05-11T20:17:48.724Z,7.87
2019-05-11T20:20:18.395Z,8.53
2019-05-11T20:22:48.369Z,9.73
2019-05-11T20:25:18.647Z,8.10
2019-05-11T20:27:48.344Z,7.50
2019-05-11T20:30:18.407Z,8.10
2019-05-11T20:32:48.839Z,8.83
2019-05-11T20:35:17.563Z,8.03
2019-05-11T20:37:46.849Z,6.47
2019-05-11T20:40:15.286Z,6.73
2019-05-11T20:42:43.956Z,6.80
2019-05-11T20:45:12.282Z,7.33
2019-05-11T20:47:41.086Z,6.40
2019-05-11T20:50:09.500Z,6.70
2019-05-11T20:52:38.938Z,9.00
2019-05-11T20:55:08.817Z,6.30
2019-05-11T20:57:39.266Z,6.63
2019-05-11T21:00:08.997Z,4.90
2019-05-11T21:02:38.071Z,5.80
2019-05-11T21:05:09.153Z,5.20
2019-05-11T21:07:38.914Z,5.77
2019-05-11T21:10:08.637Z,7.47
2019-05-11T21:12:38.594Z,7.37
2019-05-11T21:15:08.471Z,7.43
2019-05-11T21:17:36.652Z,7.47
2019-05-11T21:20:06.714Z,6.50
2019-05-11T21:22:34.906Z,6.83
2019-05-11T21:25:04.469Z,6.37
2019-05-11T21:27:34.230Z,8.77
2019-05-11T21:30:02.648Z,7.30
2019-05-11T21:35:19.528Z,5.17
2019-05-11T21:37:48.765Z,5.20
2019-05-11T21:40:17.197Z,6.37
2019-05-11T21:42:47.591Z,4.63
2019-05-11T21:45:18.356Z,4.67
2019-05-11T21:47:48.922Z,5.30
2019-05-11T21:50:18.854Z,5.03
2019-05-11T21:52:48.415Z,5.20
2019-05-11T21:55:16.550Z,4.67
2019-05-11T21:57:44.741Z,3.93
2019-05-11T22:00:13.313Z,4.40
2019-05-11T22:02:41.490Z,4.67
2019-05-11T22:05:10.782Z,6.13
2019-05-11T22:07:42.055Z,7.20
2019-05-11T22:10:09.208Z,5.90
2019-05-11T22:12:38.686Z,5.83
2019-05-11T22:15:09.400Z,7.43
2019-05-11T22:17:39.696Z,8.13
2019-05-11T22:20:08.808Z,9.13
2019-05-11T22:22:38.895Z,10.43
2019-05-11T22:25:08.023Z,7.90
2019-05-11T22:27:38.687Z,9.37
2019-05-11T22:30:09.717Z,8.20
2019-05-11T22:32:38.620Z,9.27
2019-05-11T22:35:07.649Z,10.07
2019-05-11T22:37:38.442Z,9.03
2019-05-11T22:40:08.266Z,7.83
2019-05-11T22:42:36.246Z,9.33
2019-05-11T22:45:08.120Z,8.87
2019-05-11T22:47:35.790Z,8.47
2019-05-11T22:50:07.744Z,11.03
2019-05-11T22:52:36.560Z,7.27
2019-05-11T22:55:08.916Z,8.50
2019-05-11T22:57:37.920Z,7.70
2019-05-11T23:00:08.140Z,6.57
2019-05-11T23:02:37.990Z,10.43
2019-05-11T23:05:08.453Z,7.93
2019-05-11T23:07:37.706Z,9.20
2019-05-11T23:10:08.588Z,7.30
2019-05-11T23:12:38.375Z,7.57
2019-05-11T23:15:12.830Z,9.23
2019-05-11T23:17:41.333Z,8.50
2019-05-11T23:20:10.060Z,9.43
2019-05-11T23:22:56.719Z,9.57
2019-05-11T23:25:18.457Z,10.17
2019-05-11T23:27:48.610Z,7.67
2019-05-11T23:30:19.696Z,6.13
2019-05-11T23:32:48.551Z,7.77
2019-05-11T23:35:18.911Z,8.83
2019-05-11T23:37:49.419Z,9.03
2019-05-11T23:40:18.345Z,6.53
2019-05-11T23:42:49.053Z,9.27
2019-05-11T23:45:18.806Z,9.60
2019-05-11T23:47:48.612Z,7.97
2019-05-11T23:50:18.822Z,8.43
2019-05-11T23:52:50.141Z,7.70
2019-05-11T23:55:19.093Z,8.90
2019-05-11T23:57:48.617Z,7.97
